createdAt,value
2018-12-12T00:00:11.526Z,0.9
2018-12-12T00:01:10.384Z,0.9
2018-12-12T00:02:10.819Z,0.9
2018-12-12T00:03:10.434Z,0.9
2018-12-12T00:04:10.671Z,0.9
2018-12-12T00:05:10.655Z,0.9
2018-12-12T00:06:10.722Z,0.9
2018-12-12T00:07:10.976Z,0.9
2018-12-12T00:08:10.549Z,0.9
2018-12-12T00:09:10.404Z,0.0
2018-12-12T00:10:10.895Z,0.0
2018-12-12T00:11:10.449Z,0.0
2018-12-12T00:12:10.844Z,0.0
2018-12-12T00:13:10.688Z,0.0
2018-12-12T00:14:10.408Z,0.0
2018-12-12T00:15:10.467Z,0.0
2018-12-12T00:16:10.639Z,0.0
2018-12-12T00:17:10.617Z,0.0
2018-12-12T00:18:10.403Z,0.0
2018-12-12T00:19:10.426Z,0.0
2018-12-12T00:20:10.682Z,0.0
2018-12-12T00:21:12.914Z,0.0
2018-12-12T00:22:12.012Z,0.0
2018-12-12T00:23:10.563Z,0.0
2018-12-12T00:24:10.684Z,0.0
2018-12-12T00:25:10.894Z,0.0
2018-12-12T00:26:10.877Z,0.0
2018-12-12T00:27:10.688Z,0.0
2018-12-12T00:28:10.464Z,0.0
2018-12-12T00:29:10.743Z,0.0
2018-12-12T00:30:10.927Z,0.0
2018-12-12T00:31:11.141Z,0.0
2018-12-12T00:32:10.699Z,0.9
2018-12-12T00:33:10.951Z,0.9
2018-12-12T00:34:10.478Z,0.9
2018-12-12T00:35:10.479Z,0.9
2018-12-12T00:36:10.484Z,0.9
2018-12-12T00:37:10.915Z,0.9
2018-12-12T00:38:10.631Z,0.9
2018-12-12T00:39:10.698Z,0.9
2018-12-12T00:40:10.951Z,0.9
2018-12-12T00:41:10.938Z,0.9
2018-12-12T00:42:10.743Z,0.9
2018-12-12T00:43:10.470Z,0.9
2018-12-12T00:44:10.486Z,0.9
2018-12-12T00:45:10.983Z,0.9
2018-12-12T00:46:10.499Z,0.9
2018-12-12T00:47:10.706Z,0.9
2018-12-12T00:48:10.513Z,0.0
2018-12-12T00:49:11.032Z,0.0
2018-12-12T00:50:10.492Z,0.0
2018-12-12T00:51:10.736Z,0.0
2018-12-12T00:52:10.937Z,0.0
2018-12-12T00:53:10.816Z,0.0
2018-12-12T00:54:10.501Z,0.0
2018-12-12T00:55:10.706Z,0.0
2018-12-12T00:56:10.555Z,0.0
2018-12-12T00:57:11.186Z,0.0
2018-12-12T00:58:11.245Z,0.9
2018-12-12T00:59:10.749Z,0.9
2018-12-12T01:00:10.730Z,0.9
2018-12-12T01:01:10.577Z,0.9
2018-12-12T01:02:10.980Z,0.9
2018-12-12T01:03:10.716Z,0.9
2018-12-12T01:04:10.516Z,0.9
2018-12-12T01:05:10.597Z,0.9
2018-12-12T01:06:11.022Z,0.9
2018-12-12T01:07:10.610Z,0.9
2018-12-12T01:08:10.843Z,0.9
2018-12-12T01:09:10.986Z,0.9
2018-12-12T01:10:10.515Z,0.9
2018-12-12T01:11:10.758Z,0.0
2018-12-12T01:12:10.529Z,0.0
2018-12-12T01:13:10.529Z,0.9
2018-12-12T01:14:10.978Z,0.9
2018-12-12T01:15:10.702Z,0.9
2018-12-12T01:16:11.013Z,0.9
2018-12-12T01:17:10.577Z,0.9
2018-12-12T01:18:11.007Z,0.9
2018-12-12T01:19:10.789Z,0.9
2018-12-12T01:20:10.722Z,0.9
2018-12-12T01:21:10.781Z,0.9
2018-12-12T01:22:10.995Z,0.9
2018-12-12T01:23:11.064Z,0.9
2018-12-12T01:24:10.776Z,0.9
2018-12-12T01:25:10.815Z,0.9
2018-12-12T01:26:10.604Z,0.9
2018-12-12T01:27:10.583Z,0.9
2018-12-12T01:28:10.608Z,0.9
2018-12-12T01:29:10.584Z,0.0
2018-12-12T01:30:10.671Z,0.0
2018-12-12T01:31:10.831Z,0.0
2018-12-12T01:32:10.566Z,0.0
2018-12-12T01:33:10.593Z,0.0
2018-12-12T01:34:11.078Z,0.0
2018-12-12T01:35:11.047Z,0.0
2018-12-12T01:36:10.788Z,0.8
2018-12-12T01:37:10.998Z,0.8
2018-12-12T01:38:10.959Z,0.8
2018-12-12T01:39:10.573Z,0.8
2018-12-12T01:40:10.804Z,0.8
2018-12-12T01:41:11.056Z,0.8
2018-12-12T01:42:11.000Z,0.8
2018-12-12T01:43:10.651Z,0.8
2018-12-12T01:44:10.870Z,0.8
2018-12-12T01:45:10.684Z,0.8
2018-12-12T01:46:12.003Z,0.0
2018-12-12T01:47:10.657Z,0.0
2018-12-12T01:48:10.806Z,0.0
2018-12-12T01:49:10.780Z,0.0
2018-12-12T01:50:11.073Z,0.0
2018-12-12T01:51:10.643Z,0.0
2018-12-12T01:52:11.050Z,0.0
2018-12-12T01:53:10.807Z,0.0
2018-12-12T01:54:10.589Z,0.0
2018-12-12T01:55:10.675Z,0.0
2018-12-12T01:56:10.638Z,0.8
2018-12-12T01:57:11.040Z,0.8
2018-12-12T01:58:10.647Z,0.8
2018-12-12T01:59:10.623Z,0.8
2018-12-12T02:00:10.634Z,0.8
2018-12-12T02:01:10.601Z,0.7
2018-12-12T02:02:11.057Z,0.7
2018-12-12T02:03:10.635Z,0.7
2018-12-12T02:04:10.621Z,0.7
2018-12-12T02:05:10.611Z,0.7
2018-12-12T02:06:11.105Z,0.7
2018-12-12T02:07:10.636Z,0.7
2018-12-12T02:08:10.770Z,0.7
2018-12-12T02:09:10.642Z,0.7
2018-12-12T02:10:11.130Z,0.7
2018-12-12T02:11:11.056Z,0.7
2018-12-12T02:12:10.687Z,0.7
2018-12-12T02:13:11.106Z,0.7
2018-12-12T02:14:10.777Z,0.7
2018-12-12T02:15:11.064Z,0.7
2018-12-12T02:16:11.545Z,0.7
2018-12-12T02:17:11.123Z,0.7
2018-12-12T02:18:11.129Z,0.7
2018-12-12T02:19:10.686Z,0.0
2018-12-12T02:20:11.152Z,0.0
2018-12-12T02:21:10.705Z,0.0
2018-12-12T02:22:11.166Z,0.8
2018-12-12T02:23:11.173Z,0.8
2018-12-12T02:24:10.705Z,0.7
2018-12-12T02:25:11.112Z,0.7
2018-12-12T02:26:10.723Z,0.7
2018-12-12T02:27:11.162Z,0.7
2018-12-12T02:28:11.184Z,0.7
2018-12-12T02:29:11.170Z,0.7
2018-12-12T02:30:10.686Z,0.7
2018-12-12T02:31:11.167Z,0.7
2018-12-12T02:32:11.256Z,0.6
2018-12-12T02:33:11.217Z,0.6
2018-12-12T02:34:10.668Z,0.6
2018-12-12T02:35:10.698Z,0.6
2018-12-12T02:36:10.698Z,0.6
2018-12-12T02:37:10.721Z,0.6
2018-12-12T02:38:10.788Z,0.6
2018-12-12T02:39:10.704Z,0.6
2018-12-12T02:40:10.683Z,0.6
2018-12-12T02:41:10.742Z,0.6
2018-12-12T02:42:11.173Z,0.6
2018-12-12T02:43:11.179Z,0.6
2018-12-12T02:44:11.140Z,0.7
2018-12-12T02:45:11.157Z,0.7
2018-12-12T02:46:11.187Z,0.7
2018-12-12T02:47:10.722Z,0.7
2018-12-12T02:48:11.147Z,0.7
2018-12-12T02:49:11.741Z,0.7
2018-12-12T02:50:10.706Z,0.7
2018-12-12T02:51:11.178Z,0.7
2018-12-12T02:52:11.215Z,0.7
2018-12-12T02:53:10.764Z,0.7
2018-12-12T02:54:10.708Z,0.0
2018-12-12T02:55:11.171Z,0.0
2018-12-12T02:56:10.739Z,0.0
2018-12-12T02:57:11.176Z,0.0
2018-12-12T02:58:11.148Z,0.0
2018-12-12T02:59:11.377Z,0.0
2018-12-12T03:00:10.840Z,0.0
2018-12-12T03:01:10.795Z,0.0
2018-12-12T03:02:11.262Z,0.0
2018-12-12T03:03:10.739Z,0.0
2018-12-12T03:04:10.788Z,0.0
2018-12-12T03:05:10.777Z,0.0
2018-12-12T03:06:11.202Z,0.0
2018-12-12T03:07:11.184Z,0.0
2018-12-12T03:08:10.861Z,0.0
2018-12-12T03:09:10.720Z,0.0
2018-12-12T03:10:10.731Z,0.0
2018-12-12T03:11:11.282Z,0.0
2018-12-12T03:12:11.216Z,0.0
2018-12-12T03:13:10.776Z,0.0
2018-12-12T03:14:10.753Z,0.0
2018-12-12T03:15:11.217Z,0.0
2018-12-12T03:16:10.764Z,0.0
2018-12-12T03:17:10.996Z,0.0
2018-12-12T03:18:11.390Z,0.0
2018-12-12T03:19:10.812Z,0.0
2018-12-12T03:20:11.195Z,0.0
2018-12-12T03:21:10.811Z,0.0
2018-12-12T03:22:11.201Z,0.0
2018-12-12T03:23:11.229Z,0.0
2018-12-12T03:24:10.791Z,0.0
2018-12-12T03:25:11.206Z,0.0
2018-12-12T03:26:11.180Z,0.0
2018-12-12T03:27:10.742Z,0.0
2018-12-12T03:28:11.224Z,0.0
2018-12-12T03:29:10.958Z,0.0
2018-12-12T03:30:10.980Z,0.0
2018-12-12T03:31:11.074Z,0.0
2018-12-12T03:32:11.042Z,0.0
2018-12-12T03:33:11.041Z,0.0
2018-12-12T03:34:10.977Z,0.0
2018-12-12T03:35:10.775Z,0.0
2018-12-12T03:36:20.916Z,0.0
2018-12-12T03:37:10.740Z,0.0
2018-12-12T03:38:11.142Z,0.0
2018-12-12T03:39:10.784Z,0.0
2018-12-12T03:40:11.018Z,0.7
2018-12-12T03:41:11.030Z,0.7
2018-12-12T03:42:10.793Z,0.7
2018-12-12T03:43:11.047Z,0.7
2018-12-12T03:44:11.002Z,0.7
2018-12-12T03:45:10.891Z,0.7
2018-12-12T03:46:11.268Z,0.7
2018-12-12T03:47:10.869Z,0.7
2018-12-12T03:48:11.296Z,0.7
2018-12-12T03:49:10.790Z,0.7
2018-12-12T03:50:11.269Z,0.7
2018-12-12T03:51:10.857Z,0.7
2018-12-12T03:52:10.815Z,0.7
2018-12-12T03:53:10.932Z,0.0
2018-12-12T03:54:10.792Z,0.0
2018-12-12T03:55:11.028Z,0.0
2018-12-12T03:56:11.271Z,0.0
2018-12-12T03:57:11.074Z,0.0
2018-12-12T03:58:11.281Z,0.0
2018-12-12T03:59:10.870Z,0.0
2018-12-12T04:00:10.843Z,0.0
2018-12-12T04:01:11.302Z,0.0
2018-12-12T04:02:10.959Z,0.0
2018-12-12T04:03:11.003Z,0.0
2018-12-12T04:04:11.092Z,0.0
2018-12-12T04:05:10.834Z,0.0
2018-12-12T04:06:10.847Z,0.0
2018-12-12T04:07:10.910Z,0.0
2018-12-12T04:08:11.203Z,0.0
2018-12-12T04:09:11.247Z,0.0
2018-12-12T04:10:11.383Z,0.0
2018-12-12T04:11:11.024Z,0.0
2018-12-12T04:12:11.059Z,0.0
2018-12-12T04:13:11.095Z,0.0
2018-12-12T04:14:11.420Z,0.0
2018-12-12T04:15:11.269Z,0.0
2018-12-12T04:16:11.063Z,0.0
2018-12-12T04:17:12.030Z,0.0
2018-12-12T04:18:11.408Z,0.0
2018-12-12T04:19:11.094Z,0.0
2018-12-12T04:20:11.345Z,0.0
2018-12-12T04:21:11.338Z,0.0
2018-12-12T04:22:11.112Z,0.0
2018-12-12T04:23:11.195Z,0.0
2018-12-12T04:24:11.328Z,0.0
2018-12-12T04:25:10.924Z,0.0
2018-12-12T04:26:11.348Z,0.0
2018-12-12T04:27:11.083Z,0.0
2018-12-12T04:28:11.656Z,0.0
2018-12-12T04:29:10.877Z,0.0
2018-12-12T04:30:10.990Z,0.0
2018-12-12T04:31:10.915Z,0.0
2018-12-12T04:32:10.898Z,0.0
2018-12-12T04:33:11.435Z,0.0
2018-12-12T04:34:10.957Z,0.0
2018-12-12T04:35:10.951Z,0.0
2018-12-12T04:36:11.062Z,0.0
2018-12-12T04:37:11.406Z,0.0
2018-12-12T04:38:11.119Z,0.0
2018-12-12T04:39:10.952Z,0.0
2018-12-12T04:40:11.393Z,0.0
2018-12-12T04:41:10.973Z,0.0
2018-12-12T04:42:10.957Z,0.0
2018-12-12T04:43:11.364Z,0.0
2018-12-12T04:44:11.416Z,0.0
2018-12-12T04:45:11.358Z,0.0
2018-12-12T04:46:11.507Z,0.0
2018-12-12T04:47:11.348Z,0.0
2018-12-12T04:48:12.129Z,0.0
2018-12-12T04:49:11.378Z,0.0
2018-12-12T04:50:11.202Z,0.0
2018-12-12T04:51:10.984Z,0.0
2018-12-12T04:52:10.962Z,0.6
2018-12-12T04:53:11.368Z,0.6
2018-12-12T04:54:11.395Z,0.6
2018-12-12T04:55:11.355Z,0.6
2018-12-12T04:56:10.954Z,0.6
2018-12-12T04:57:10.894Z,0.6
2018-12-12T04:58:10.988Z,0.6
2018-12-12T04:59:11.147Z,0.6
2018-12-12T05:00:10.963Z,0.6
2018-12-12T05:01:11.433Z,0.6
2018-12-12T05:02:11.491Z,0.6
2018-12-12T05:03:10.961Z,0.6
2018-12-12T05:04:11.646Z,0.6
2018-12-12T05:05:11.383Z,0.6
2018-12-12T05:06:10.955Z,0.0
2018-12-12T05:07:11.187Z,0.0
2018-12-12T05:08:11.276Z,0.0
2018-12-12T05:09:10.958Z,0.0
2018-12-12T05:10:11.455Z,0.0
2018-12-12T05:11:11.124Z,0.0
2018-12-12T05:12:11.615Z,0.7
2018-12-12T05:13:11.169Z,0.7
2018-12-12T05:14:11.991Z,0.6
2018-12-12T05:15:11.201Z,0.6
2018-12-12T05:16:11.035Z,0.6
2018-12-12T05:17:11.202Z,0.6
2018-12-12T05:18:11.051Z,0.6
2018-12-12T05:19:11.074Z,0.6
2018-12-12T05:20:11.275Z,0.6
2018-12-12T05:21:10.964Z,0.6
2018-12-12T05:22:11.264Z,0.6
2018-12-12T05:23:11.192Z,0.6
2018-12-12T05:24:11.061Z,0.6
2018-12-12T05:25:11.472Z,0.6
2018-12-12T05:26:11.044Z,0.6
2018-12-12T05:27:10.977Z,0.6
2018-12-12T05:28:11.060Z,0.6
2018-12-12T05:29:11.031Z,0.6
2018-12-12T05:30:11.852Z,0.0
2018-12-12T05:31:11.473Z,0.0
2018-12-12T05:32:11.293Z,0.7
2018-12-12T05:33:11.017Z,0.7
2018-12-12T05:34:11.060Z,0.7
2018-12-12T05:35:11.034Z,0.7
2018-12-12T05:36:11.124Z,0.7
2018-12-12T05:37:11.044Z,0.7
2018-12-12T05:38:11.432Z,0.7
2018-12-12T05:39:11.473Z,0.7
2018-12-12T05:40:11.505Z,0.7
2018-12-12T05:41:11.038Z,0.7
2018-12-12T05:42:11.327Z,0.7
2018-12-12T05:43:11.248Z,0.7
2018-12-12T05:44:11.326Z,0.7
2018-12-12T05:45:11.457Z,0.7
2018-12-12T05:46:11.741Z,0.7
2018-12-12T05:47:11.053Z,0.7
2018-12-12T05:48:11.270Z,0.7
2018-12-12T05:49:11.053Z,0.7
2018-12-12T05:50:11.103Z,0.7
2018-12-12T05:51:11.103Z,0.0
2018-12-12T05:52:11.564Z,0.0
2018-12-12T05:53:11.391Z,0.0
2018-12-12T05:54:11.069Z,0.0
2018-12-12T05:55:11.251Z,0.0
2018-12-12T05:56:13.919Z,0.0
2018-12-12T05:57:11.274Z,0.0
2018-12-12T05:58:12.557Z,0.0
2018-12-12T05:59:11.500Z,0.0
2018-12-12T06:00:11.340Z,0.0
2018-12-12T06:01:11.490Z,0.0
2018-12-12T06:02:11.567Z,0.0
2018-12-12T06:03:11.503Z,0.0
2018-12-12T06:04:11.145Z,0.0
2018-12-12T06:05:11.108Z,0.0
2018-12-12T06:06:11.131Z,0.0
2018-12-12T06:07:11.575Z,0.0
2018-12-12T06:08:11.322Z,0.0
2018-12-12T06:09:11.317Z,0.0
2018-12-12T06:10:12.194Z,0.0
2018-12-12T06:11:11.162Z,0.0
2018-12-12T06:12:11.396Z,0.0
2018-12-12T06:13:11.105Z,0.0
2018-12-12T06:14:11.825Z,0.0
2018-12-12T06:15:11.518Z,0.7
2018-12-12T06:16:11.552Z,0.7
2018-12-12T06:17:11.321Z,0.7
2018-12-12T06:18:11.177Z,0.7
2018-12-12T06:19:11.131Z,0.7
2018-12-12T06:20:11.159Z,0.7
2018-12-12T06:21:11.098Z,0.7
2018-12-12T06:22:11.599Z,0.7
2018-12-12T06:23:11.199Z,0.7
2018-12-12T06:24:11.568Z,0.7
2018-12-12T06:25:11.640Z,0.7
2018-12-12T06:26:11.560Z,0.7
2018-12-12T06:27:11.214Z,0.7
2018-12-12T06:28:11.688Z,0.7
2018-12-12T06:29:11.744Z,0.7
2018-12-12T06:30:11.201Z,0.7
2018-12-12T06:31:11.171Z,0.7
2018-12-12T06:32:11.426Z,0.7
2018-12-12T06:33:11.171Z,0.7
2018-12-12T06:34:11.170Z,0.7
2018-12-12T06:35:11.293Z,0.7
2018-12-12T06:36:11.563Z,0.7
2018-12-12T06:37:11.609Z,0.7
2018-12-12T06:38:11.348Z,0.8
2018-12-12T06:39:11.348Z,0.8
2018-12-12T06:40:11.385Z,0.8
2018-12-12T06:41:11.307Z,0.8
2018-12-12T06:42:11.166Z,0.8
2018-12-12T06:43:11.621Z,0.8
2018-12-12T06:44:11.157Z,0.8
2018-12-12T06:45:11.676Z,0.8
2018-12-12T06:46:11.527Z,0.8
2018-12-12T06:47:11.320Z,0.8
2018-12-12T06:48:11.166Z,0.7
2018-12-12T06:49:11.161Z,0.7
2018-12-12T06:50:11.322Z,0.7
2018-12-12T06:51:11.596Z,0.8
2018-12-12T06:52:11.773Z,0.8
2018-12-12T06:53:11.618Z,0.8
2018-12-12T06:54:11.592Z,0.8
2018-12-12T06:55:11.355Z,0.8
2018-12-12T06:56:11.189Z,0.7
2018-12-12T06:57:11.251Z,0.7
2018-12-12T06:58:11.446Z,0.7
2018-12-12T06:59:11.238Z,0.7
2018-12-12T07:00:11.266Z,0.7
2018-12-12T07:01:11.165Z,0.8
2018-12-12T07:02:11.176Z,0.8
2018-12-12T07:03:11.212Z,0.8
2018-12-12T07:04:11.155Z,0.8
2018-12-12T07:05:11.625Z,0.8
2018-12-12T07:06:11.203Z,0.8
2018-12-12T07:07:11.950Z,0.8
2018-12-12T07:08:11.477Z,0.8
2018-12-12T07:09:11.630Z,0.7
2018-12-12T07:10:11.438Z,0.7
2018-12-12T07:11:11.190Z,0.7
2018-12-12T07:12:11.197Z,0.7
2018-12-12T07:13:11.235Z,0.7
2018-12-12T07:14:11.634Z,0.7
2018-12-12T07:15:11.179Z,0.7
2018-12-12T07:16:11.437Z,0.8
2018-12-12T07:17:11.631Z,0.8
2018-12-12T07:18:11.412Z,0.8
2018-12-12T07:19:11.201Z,0.8
2018-12-12T07:20:11.265Z,0.8
2018-12-12T07:21:11.164Z,0.8
2018-12-12T07:22:11.212Z,0.8
2018-12-12T07:23:11.478Z,0.8
2018-12-12T07:24:11.229Z,0.8
2018-12-12T07:25:11.220Z,0.8
2018-12-12T07:26:11.210Z,0.8
2018-12-12T07:27:11.214Z,0.8
2018-12-12T07:28:11.224Z,0.8
2018-12-12T07:29:11.640Z,0.8
2018-12-12T07:30:11.236Z,0.8
2018-12-12T07:31:11.442Z,0.8
2018-12-12T07:32:11.179Z,0.8
2018-12-12T07:33:11.204Z,0.8
2018-12-12T07:34:11.187Z,0.8
2018-12-12T07:35:11.483Z,0.8
2018-12-12T07:36:11.493Z,0.8
2018-12-12T07:37:11.258Z,0.8
2018-12-12T07:38:11.660Z,0.8
2018-12-12T07:39:17.720Z,0.8
2018-12-12T07:40:11.218Z,0.8
2018-12-12T07:41:11.657Z,0.8
2018-12-12T07:42:11.211Z,0.8
2018-12-12T07:43:11.241Z,0.8
2018-12-12T07:44:11.690Z,0.8
2018-12-12T07:45:11.270Z,0.8
2018-12-12T07:46:11.643Z,0.8
2018-12-12T07:47:12.110Z,0.8
2018-12-12T07:48:13.091Z,0.8
2018-12-12T07:49:12.119Z,0.8
2018-12-12T07:50:12.591Z,0.8
2018-12-12T07:51:12.269Z,0.8
2018-12-12T07:52:14.413Z,0.8
2018-12-12T07:53:13.743Z,0.8
2018-12-12T07:54:13.982Z,0.8
2018-12-12T07:55:13.128Z,0.8
2018-12-12T07:56:11.861Z,0.8
2018-12-12T07:57:12.369Z,0.0
2018-12-12T07:58:12.319Z,0.0
2018-12-12T07:59:11.274Z,0.0
2018-12-12T08:00:11.268Z,0.0
2018-12-12T08:01:11.532Z,0.0
2018-12-12T08:02:11.261Z,0.0
2018-12-12T08:03:11.344Z,0.0
2018-12-12T08:04:11.268Z,0.0
2018-12-12T08:05:11.555Z,0.0
2018-12-12T08:06:11.746Z,0.0
2018-12-12T08:07:11.273Z,0.0
2018-12-12T08:08:11.342Z,0.0
2018-12-12T08:09:11.783Z,0.0
2018-12-12T08:10:11.371Z,0.0
2018-12-12T08:11:11.460Z,0.0
2018-12-12T08:12:11.585Z,0.0
2018-12-12T08:13:11.390Z,0.0
2018-12-12T08:14:11.756Z,0.0
2018-12-12T08:15:11.372Z,0.0
2018-12-12T08:16:11.495Z,0.0
2018-12-12T08:17:21.533Z,0.0
2018-12-12T08:18:11.421Z,0.0
2018-12-12T08:19:11.725Z,0.0
2018-12-12T08:20:11.550Z,0.0
2018-12-12T08:21:11.754Z,0.0
2018-12-12T08:22:11.325Z,0.0
2018-12-12T08:23:11.442Z,0.0
2018-12-12T08:24:11.308Z,0.0
2018-12-12T08:25:11.398Z,0.0
2018-12-12T08:26:11.556Z,0.0
2018-12-12T08:27:12.341Z,0.0
2018-12-12T08:28:11.749Z,0.0
2018-12-12T08:29:11.294Z,0.0
2018-12-12T08:30:11.303Z,0.0
2018-12-12T08:31:11.558Z,0.0
2018-12-12T08:32:11.788Z,0.0
2018-12-12T08:33:11.635Z,0.0
2018-12-12T08:34:11.319Z,0.0
2018-12-12T08:35:11.546Z,0.0
2018-12-12T08:36:11.330Z,0.0
2018-12-12T08:37:11.944Z,0.0
2018-12-12T08:38:11.378Z,0.0
2018-12-12T08:39:11.805Z,0.0
2018-12-12T08:40:11.368Z,0.0
2018-12-12T08:41:12.055Z,0.0
2018-12-12T08:42:11.561Z,0.0
2018-12-12T08:43:11.317Z,0.0
2018-12-12T08:44:11.779Z,0.0
2018-12-12T08:45:12.036Z,0.0
2018-12-12T08:46:11.594Z,0.0
2018-12-12T08:47:11.391Z,0.0
2018-12-12T08:48:11.769Z,0.0
2018-12-12T08:49:11.574Z,0.0
2018-12-12T08:50:11.689Z,0.0
2018-12-12T08:51:11.410Z,0.0
2018-12-12T08:52:11.408Z,0.0
2018-12-12T08:53:11.867Z,0.0
2018-12-12T08:54:11.478Z,0.0
2018-12-12T08:55:17.333Z,0.0
2018-12-12T08:56:11.638Z,0.0
2018-12-12T08:57:11.659Z,0.0
2018-12-12T08:58:11.517Z,1.4
2018-12-12T08:59:11.373Z,1.4
2018-12-12T09:00:11.593Z,1.4
2018-12-12T09:01:11.390Z,1.3
2018-12-12T09:02:11.602Z,1.3
2018-12-12T09:03:17.301Z,1.4
2018-12-12T09:04:11.380Z,1.4
2018-12-12T09:05:11.844Z,1.4
2018-12-12T09:06:11.622Z,1.4
2018-12-12T09:07:11.388Z,1.4
2018-12-12T09:08:11.492Z,1.4
2018-12-12T09:09:11.416Z,1.4
2018-12-12T09:10:11.901Z,1.4
2018-12-12T09:11:11.445Z,1.4
2018-12-12T09:12:11.435Z,1.4
2018-12-12T09:13:11.849Z,1.4
2018-12-12T09:14:11.648Z,1.4
2018-12-12T09:15:11.469Z,1.4
2018-12-12T09:16:11.480Z,1.5
2018-12-12T09:17:12.214Z,1.5
2018-12-12T09:18:12.568Z,1.5
2018-12-12T09:19:11.689Z,1.5
2018-12-12T09:20:11.874Z,1.5
2018-12-12T09:21:11.494Z,1.6
2018-12-12T09:22:11.482Z,1.6
2018-12-12T09:23:11.623Z,1.7
2018-12-12T09:24:11.923Z,1.7
2018-12-12T09:25:11.640Z,1.7
2018-12-12T09:26:11.719Z,1.7
2018-12-12T09:27:11.535Z,1.7
2018-12-12T09:28:11.678Z,1.7
2018-12-12T09:29:11.746Z,1.8
2018-12-12T09:30:11.668Z,1.8
2018-12-12T09:31:11.508Z,1.7
2018-12-12T09:32:11.461Z,1.7
2018-12-12T09:33:11.948Z,1.7
2018-12-12T09:34:11.441Z,1.7
2018-12-12T09:35:11.440Z,1.7
2018-12-12T09:36:11.916Z,1.8
2018-12-12T09:37:11.406Z,1.8
2018-12-12T09:38:11.885Z,1.8
2018-12-12T09:39:11.909Z,1.8
2018-12-12T09:40:11.459Z,1.8
2018-12-12T09:41:11.527Z,1.9
2018-12-12T09:42:11.683Z,1.9
2018-12-12T09:43:11.615Z,1.9
2018-12-12T09:44:11.577Z,1.8
2018-12-12T09:45:11.549Z,1.8
2018-12-12T09:46:12.671Z,1.9
2018-12-12T09:47:11.674Z,1.9
2018-12-12T09:48:11.906Z,1.9
2018-12-12T09:49:11.569Z,2.0
2018-12-12T09:50:11.953Z,2.0
2018-12-12T09:51:11.955Z,2.0
2018-12-12T09:52:11.482Z,2.0
2018-12-12T09:53:11.547Z,2.0
2018-12-12T09:54:11.743Z,2.0
2018-12-12T09:55:11.916Z,2.0
2018-12-12T09:56:11.509Z,2.0
2018-12-12T09:57:12.057Z,2.2
2018-12-12T09:58:12.096Z,2.2
2018-12-12T09:59:11.948Z,2.3
2018-12-12T10:00:11.488Z,2.3
2018-12-12T10:01:11.937Z,2.3
2018-12-12T10:02:11.754Z,2.3
2018-12-12T10:03:11.541Z,2.3
2018-12-12T10:04:11.978Z,2.3
2018-12-12T10:05:11.713Z,2.3
2018-12-12T10:06:11.498Z,2.3
2018-12-12T10:07:11.731Z,2.3
2018-12-12T10:08:11.940Z,2.3
2018-12-12T10:09:11.522Z,2.2
2018-12-12T10:10:11.996Z,2.2
2018-12-12T10:11:11.685Z,2.2
2018-12-12T10:12:11.936Z,2.3
2018-12-12T10:13:11.536Z,2.3
2018-12-12T10:14:11.779Z,2.4
2018-12-12T10:15:11.541Z,2.4
2018-12-12T10:16:11.762Z,2.4
2018-12-12T10:17:11.808Z,2.3
2018-12-12T10:18:11.971Z,2.3
2018-12-12T10:19:11.547Z,2.4
2018-12-12T10:20:11.585Z,2.4
2018-12-12T10:21:11.584Z,2.4
2018-12-12T10:22:11.523Z,2.5
2018-12-12T10:23:11.645Z,2.5
2018-12-12T10:24:11.650Z,2.4
2018-12-12T10:25:11.741Z,2.4
2018-12-12T10:26:11.745Z,2.4
2018-12-12T10:27:11.540Z,2.6
2018-12-12T10:28:11.753Z,2.6
2018-12-12T10:29:12.026Z,2.6
2018-12-12T10:30:12.053Z,2.5
2018-12-12T10:31:11.673Z,2.5
2018-12-12T10:32:11.771Z,2.5
2018-12-12T10:33:11.674Z,2.5
2018-12-12T10:34:11.627Z,2.5
2018-12-12T10:35:11.729Z,2.5
2018-12-12T10:36:11.809Z,2.5
2018-12-12T10:37:11.606Z,2.5
2018-12-12T10:38:11.647Z,2.5
2018-12-12T10:39:11.589Z,2.5
2018-12-12T10:40:11.609Z,2.5
2018-12-12T10:41:11.578Z,2.5
2018-12-12T10:42:11.567Z,2.5
2018-12-12T10:43:11.682Z,2.5
2018-12-12T10:44:11.689Z,2.5
2018-12-12T10:45:11.592Z,2.4
2018-12-12T10:46:11.823Z,2.4
2018-12-12T10:47:13.176Z,2.5
2018-12-12T10:48:11.596Z,2.5
2018-12-12T10:49:11.556Z,2.5
2018-12-12T10:50:11.578Z,2.6
2018-12-12T10:51:12.026Z,2.6
2018-12-12T10:52:12.031Z,2.7
2018-12-12T10:53:12.089Z,2.7
2018-12-12T10:54:11.793Z,2.7
2018-12-12T10:55:11.747Z,2.7
2018-12-12T10:56:11.628Z,2.7
2018-12-12T10:57:11.635Z,2.7
2018-12-12T10:58:11.651Z,2.6
2018-12-12T10:59:11.632Z,2.6
2018-12-12T11:00:12.654Z,2.6
2018-12-12T11:01:11.766Z,2.6
2018-12-12T11:02:11.852Z,2.6
2018-12-12T11:03:12.046Z,2.6
2018-12-12T11:04:11.598Z,2.6
2018-12-12T11:05:11.600Z,2.6
2018-12-12T11:06:11.677Z,2.6
2018-12-12T11:07:12.112Z,2.6
2018-12-12T11:08:11.694Z,2.5
2018-12-12T11:09:11.618Z,2.5
2018-12-12T11:10:11.673Z,2.6
2018-12-12T11:11:12.034Z,2.6
2018-12-12T11:12:11.876Z,2.6
2018-12-12T11:13:11.605Z,2.6
2018-12-12T11:14:11.628Z,2.6
2018-12-12T11:15:12.058Z,2.6
2018-12-12T11:16:11.614Z,2.6
2018-12-12T11:17:11.630Z,2.6
2018-12-12T11:18:11.623Z,2.6
2018-12-12T11:19:11.641Z,2.6
2018-12-12T11:20:11.701Z,2.6
2018-12-12T11:21:11.665Z,2.6
2018-12-12T11:22:11.808Z,2.6
2018-12-12T11:23:11.705Z,2.6
2018-12-12T11:24:11.850Z,2.6
2018-12-12T11:25:11.677Z,2.4
2018-12-12T11:26:12.097Z,2.4
2018-12-12T11:27:11.822Z,2.4
2018-12-12T11:28:11.649Z,2.4
2018-12-12T11:29:11.719Z,2.4
2018-12-12T11:30:11.817Z,2.4
2018-12-12T11:31:12.102Z,2.4
2018-12-12T11:32:11.641Z,2.4
2018-12-12T11:33:11.653Z,2.4
2018-12-12T11:34:12.149Z,2.4
2018-12-12T11:35:11.897Z,2.4
2018-12-12T11:36:12.140Z,2.5
2018-12-12T11:37:11.653Z,2.5
2018-12-12T11:38:11.745Z,2.4
2018-12-12T11:39:11.657Z,2.4
2018-12-12T11:40:11.887Z,2.4
2018-12-12T11:41:11.732Z,2.3
2018-12-12T11:42:11.897Z,2.3
2018-12-12T11:43:12.105Z,2.3
2018-12-12T11:44:11.739Z,2.3
2018-12-12T11:45:11.640Z,2.3
2018-12-12T11:46:11.747Z,2.4
2018-12-12T11:47:11.695Z,2.4
2018-12-12T11:48:13.309Z,2.4
2018-12-12T11:49:11.670Z,2.4
2018-12-12T11:50:12.128Z,2.4
2018-12-12T11:51:11.672Z,2.4
2018-12-12T11:52:12.161Z,2.4
2018-12-12T11:53:11.742Z,2.5
2018-12-12T11:54:11.670Z,2.5
2018-12-12T11:55:11.762Z,2.5
2018-12-12T11:56:12.123Z,2.5
2018-12-12T11:57:11.691Z,2.5
2018-12-12T11:58:12.152Z,2.5
2018-12-12T11:59:11.884Z,2.4
2018-12-12T12:00:11.751Z,2.4
2018-12-12T12:01:11.903Z,2.3
2018-12-12T12:02:11.754Z,2.3
2018-12-12T12:03:11.672Z,2.3
2018-12-12T12:04:12.150Z,2.3
2018-12-12T12:05:12.169Z,2.3
2018-12-12T12:06:11.846Z,2.3
2018-12-12T12:07:11.724Z,2.3
2018-12-12T12:08:12.001Z,2.3
2018-12-12T12:09:11.651Z,2.3
2018-12-12T12:10:11.847Z,2.3
2018-12-12T12:11:12.209Z,2.3
2018-12-12T12:12:11.957Z,2.3
2018-12-12T12:13:13.298Z,2.3
2018-12-12T12:14:11.721Z,2.5
2018-12-12T12:15:11.908Z,2.5
2018-12-12T12:16:11.747Z,2.5
2018-12-12T12:17:11.995Z,2.5
2018-12-12T12:18:11.941Z,2.5
2018-12-12T12:19:12.023Z,2.5
2018-12-12T12:20:12.172Z,2.5
2018-12-12T12:21:17.632Z,2.4
2018-12-12T12:22:17.838Z,2.4
2018-12-12T12:23:21.096Z,2.4
2018-12-12T12:24:28.509Z,2.5
2018-12-12T12:25:30.646Z,2.5
2018-12-12T12:26:33.338Z,2.5
2018-12-12T12:27:38.484Z,2.5
2018-12-12T12:28:11.994Z,2.5
2018-12-12T12:29:32.146Z,2.4
2018-12-12T12:30:12.047Z,2.4
2018-12-12T12:31:11.892Z,2.4
2018-12-12T12:32:11.818Z,2.3
2018-12-12T12:33:11.773Z,2.3
2018-12-12T12:34:11.723Z,2.4
2018-12-12T12:35:12.244Z,2.4
2018-12-12T12:36:11.981Z,2.4
2018-12-12T12:37:11.819Z,2.4
2018-12-12T12:38:12.043Z,2.4
2018-12-12T12:39:11.807Z,2.4
2018-12-12T12:40:11.771Z,2.4
2018-12-12T12:41:11.968Z,2.4
2018-12-12T12:42:11.993Z,2.4
2018-12-12T12:43:12.007Z,2.4
2018-12-12T12:44:11.788Z,2.4
2018-12-12T12:45:11.956Z,2.4
2018-12-12T12:46:12.222Z,2.4
2018-12-12T12:47:11.784Z,2.4
2018-12-12T12:48:11.816Z,2.4
2018-12-12T12:49:13.421Z,2.5
2018-12-12T12:50:11.830Z,2.5
2018-12-12T12:51:12.202Z,2.5
2018-12-12T12:52:11.843Z,2.5
2018-12-12T12:53:12.046Z,2.5
2018-12-12T12:54:11.780Z,2.6
2018-12-12T12:55:11.997Z,2.6
2018-12-12T12:56:11.756Z,2.6
2018-12-12T12:57:11.970Z,2.5
2018-12-12T12:58:11.810Z,2.5
2018-12-12T12:59:11.764Z,2.5
2018-12-12T13:00:11.782Z,2.6
2018-12-12T13:01:12.350Z,2.6
2018-12-12T13:02:11.856Z,2.7
2018-12-12T13:03:11.858Z,2.7
2018-12-12T13:04:11.873Z,2.7
2018-12-12T13:05:11.827Z,2.7
2018-12-12T13:06:11.863Z,2.7
2018-12-12T13:07:12.045Z,2.7
2018-12-12T13:08:12.151Z,2.7
2018-12-12T13:09:12.305Z,2.7
2018-12-12T13:10:11.909Z,2.7
2018-12-12T13:11:14.681Z,2.7
2018-12-12T13:12:12.450Z,2.7
2018-12-12T13:13:12.388Z,2.7
2018-12-12T13:14:12.435Z,2.7
2018-12-12T13:15:12.334Z,2.6
2018-12-12T13:16:12.553Z,2.6
2018-12-12T13:17:12.420Z,2.6
2018-12-12T13:18:19.815Z,2.6
2018-12-12T13:19:14.670Z,2.6
2018-12-12T13:20:16.920Z,2.6
2018-12-12T13:21:13.733Z,2.6
2018-12-12T13:22:12.345Z,2.6
2018-12-12T13:23:11.922Z,2.6
2018-12-12T13:24:12.335Z,2.6
2018-12-12T13:25:11.868Z,2.6
2018-12-12T13:26:12.035Z,2.6
2018-12-12T13:27:12.022Z,2.5
2018-12-12T13:28:12.312Z,2.5
2018-12-12T13:29:12.287Z,2.5
2018-12-12T13:30:12.351Z,2.6
2018-12-12T13:31:12.314Z,2.6
2018-12-12T13:32:11.821Z,2.6
2018-12-12T13:33:11.874Z,2.5
2018-12-12T13:34:16.146Z,2.5
2018-12-12T13:35:12.422Z,2.5
2018-12-12T13:36:11.882Z,2.5
2018-12-12T13:37:11.855Z,2.5
2018-12-12T13:38:13.372Z,2.3
2018-12-12T13:39:11.952Z,2.3
2018-12-12T13:40:11.972Z,2.3
2018-12-12T13:41:12.303Z,2.3
2018-12-12T13:42:12.316Z,2.3
2018-12-12T13:43:12.156Z,2.2
2018-12-12T13:44:12.749Z,2.2
2018-12-12T13:45:12.327Z,2.2
2018-12-12T13:46:12.101Z,2.2